sensor_id;sensor_type;location;lat;lon;timestamp;temperature;humidity
76577;DHT22;65441;44.748;37.600;2023-07-29T00:00:57;21.10;69.01
76577;DHT22;65441;44.748;37.600;2023-07-29T00:03:26;21.16;74.14
76577;DHT22;65441;44.748;37.600;2023-07-29T00:05:56;21.10;70.38
76577;DHT22;65441;44.748;37.600;2023-07-29T00:08:24;21.06;71.23
76577;DHT22;65441;44.748;37.600;2023-07-29T00:10:54;21.10;69.81
76577;DHT22;65441;44.748;37.600;2023-07-29T00:13:22;21.09;69.47
76577;DHT22;65441;44.748;37.600;2023-07-29T00:15:53;21.06;73.42
76577;DHT22;65441;44.748;37.600;2023-07-29T00:18:21;21.13;73.09
76577;DHT22;65441;44.748;37.600;2023-07-29T00:20:52;20.98;72.51
76577;DHT22;65441;44.748;37.600;2023-07-29T00:23:20;20.91;71.00
76577;DHT22;65441;44.748;37.600;2023-07-29T00:25:49;20.78;73.06
76577;DHT22;65441;44.748;37.600;2023-07-29T00:28:18;21.03;72.28
76577;DHT22;65441;44.748;37.600;2023-07-29T00:30:46;20.85;73.07
76577;DHT22;65441;44.748;37.600;2023-07-29T00:33:14;20.91;72.87
76577;DHT22;65441;44.748;37.600;2023-07-29T00:35:42;20.85;73.90
76577;DHT22;65441;44.748;37.600;2023-07-29T00:38:11;20.57;71.43
76577;DHT22;65441;44.748;37.600;2023-07-29T00:40:39;20.28;72.23
76577;DHT22;65441;44.748;37.600;2023-07-29T00:43:07;20.53;72.93
76577;DHT22;65441;44.748;37.600;2023-07-29T00:45:39;20.35;74.15
76577;DHT22;65441;44.748;37.600;2023-07-29T00:48:10;20.11;73.64
76577;DHT22;65441;44.748;37.600;2023-07-29T00:50:40;20.24;74.40
76577;DHT22;65441;44.748;37.600;2023-07-29T00:53:08;20.21;76.23
76577;DHT22;65441;44.748;37.600;2023-07-29T00:55:37;20.17;76.27
76577;DHT22;65441;44.748;37.600;2023-07-29T00:58:05;20.10;77.68
76577;DHT22;65441;44.748;37.600;2023-07-29T01:00:34;20.04;74.37
76577;DHT22;65441;44.748;37.600;2023-07-29T01:03:05;20.04;73.99
76577;DHT22;65441;44.748;37.600;2023-07-29T01:05:39;20.09;75.86
76577;DHT22;65441;44.748;37.600;2023-07-29T01:08:12;20.19;78.50
76577;DHT22;65441;44.748;37.600;2023-07-29T01:10:48;20.21;74.80
76577;DHT22;65441;44.748;37.600;2023-07-29T01:13:25;20.28;74.68
76577;DHT22;65441;44.748;37.600;2023-07-29T01:15:58;20.28;73.66
76577;DHT22;65441;44.748;37.600;2023-07-29T01:18:31;20.22;73.55
76577;DHT22;65441;44.748;37.600;2023-07-29T01:21:03;20.42;74.27
76577;DHT22;65441;44.748;37.600;2023-07-29T01:23:34;20.43;73.44
76577;DHT22;65441;44.748;37.600;2023-07-29T01:26:03;20.65;73.12
76577;DHT22;65441;44.748;37.600;2023-07-29T01:28:31;20.61;72.96
76577;DHT22;65441;44.748;37.600;2023-07-29T01:31:05;20.57;73.60
76577;DHT22;65441;44.748;37.600;2023-07-29T01:33:39;20.49;73.94
76577;DHT22;65441;44.748;37.600;2023-07-29T01:36:12;20.63;73.38
76577;DHT22;65441;44.748;37.600;2023-07-29T01:38:44;20.71;74.05
76577;DHT22;65441;44.748;37.600;2023-07-29T01:41:13;20.49;73.35
76577;DHT22;65441;44.748;37.600;2023-07-29T01:43:42;20.61;73.83
76577;DHT22;65441;44.748;37.600;2023-07-29T01:46:10;20.55;74.92
76577;DHT22;65441;44.748;37.600;2023-07-29T01:48:39;20.51;73.54
76577;DHT22;65441;44.748;37.600;2023-07-29T01:51:07;20.48;74.90
76577;DHT22;65441;44.748;37.600;2023-07-29T01:53:37;20.55;73.73
76577;DHT22;65441;44.748;37.600;2023-07-29T01:56:07;20.64;76.39
76577;DHT22;65441;44.748;37.600;2023-07-29T01:58:48;20.60;73.66
76577;DHT22;65441;44.748;37.600;2023-07-29T02:01:17;20.51;73.11
76577;DHT22;65441;44.748;37.600;2023-07-29T02:03:45;20.21;74.15
76577;DHT22;65441;44.748;37.600;2023-07-29T02:06:13;19.99;75.34
76577;DHT22;65441;44.748;37.600;2023-07-29T02:08:41;20.02;76.31
76577;DHT22;65441;44.748;37.600;2023-07-29T02:11:11;19.95;78.26
76577;DHT22;65441;44.748;37.600;2023-07-29T02:13:39;19.71;79.08
76577;DHT22;65441;44.748;37.600;2023-07-29T02:16:07;19.79;77.28
76577;DHT22;65441;44.748;37.600;2023-07-29T02:18:35;19.75;76.70
76577;DHT22;65441;44.748;37.600;2023-07-29T02:21:03;19.56;76.50
76577;DHT22;65441;44.748;37.600;2023-07-29T02:23:31;19.65;77.06
76577;DHT22;65441;44.748;37.600;2023-07-29T02:26:00;19.30;77.56
76577;DHT22;65441;44.748;37.600;2023-07-29T02:28:29;19.30;78.69
76577;DHT22;65441;44.748;37.600;2023-07-29T02:31:12;19.46;77.78
76577;DHT22;65441;44.748;37.600;2023-07-29T02:33:40;19.33;78.18
76577;DHT22;65441;44.748;37.600;2023-07-29T02:36:08;19.33;79.88
76577;DHT22;65441;44.748;37.600;2023-07-29T02:38:36;19.37;77.63
76577;DHT22;65441;44.748;37.600;2023-07-29T02:41:05;19.40;80.56
76577;DHT22;65441;44.748;37.600;2023-07-29T02:43:34;19.58;77.02
76577;DHT22;65441;44.748;37.600;2023-07-29T02:46:02;19.47;77.86
76577;DHT22;65441;44.748;37.600;2023-07-29T02:48:31;19.37;77.89
76577;DHT22;65441;44.748;37.600;2023-07-29T02:50:59;19.42;78.91
76577;DHT22;65441;44.748;37.600;2023-07-29T02:53:27;19.48;78.37
76577;DHT22;65441;44.748;37.600;2023-07-29T02:55:55;19.31;78.75
76577;DHT22;65441;44.748;37.600;2023-07-29T02:58:23;19.22;79.11
76577;DHT22;65441;44.748;37.600;2023-07-29T03:00:54;19.20;79.43
76577;DHT22;65441;44.748;37.600;2023-07-29T03:03:28;19.26;79.13
76577;DHT22;65441;44.748;37.600;2023-07-29T03:06:00;19.35;80.40
76577;DHT22;65441;44.748;37.600;2023-07-29T03:08:28;19.63;79.16
76577;DHT22;65441;44.748;37.600;2023-07-29T03:10:57;19.65;79.51
76577;DHT22;65441;44.748;37.600;2023-07-29T03:13:26;20.10;78.95
76577;DHT22;65441;44.748;37.600;2023-07-29T03:16:04;20.30;79.17
76577;DHT22;65441;44.748;37.600;2023-07-29T03:18:33;20.48;76.92
76577;DHT22;65441;44.748;37.600;2023-07-29T03:21:01;20.51;76.92
76577;DHT22;65441;44.748;37.600;2023-07-29T03:23:30;20.88;76.92
76577;DHT22;65441;44.748;37.600;2023-07-29T03:25:59;21.08;76.07
76577;DHT22;65441;44.748;37.600;2023-07-29T03:28:28;21.33;75.31
76577;DHT22;65441;44.748;37.600;2023-07-29T03:30:58;21.57;75.15
76577;DHT22;65441;44.748;37.600;2023-07-29T03:33:26;21.81;74.08
76577;DHT22;65441;44.748;37.600;2023-07-29T03:35:55;21.90;73.38
76577;DHT22;65441;44.748;37.600;2023-07-29T03:38:23;22.14;72.74
76577;DHT22;65441;44.748;37.600;2023-07-29T03:40:52;22.29;72.53
76577;DHT22;65441;44.748;37.600;2023-07-29T03:43:21;22.50;70.93
76577;DHT22;65441;44.748;37.600;2023-07-29T03:45:49;22.71;70.72
76577;DHT22;65441;44.748;37.600;2023-07-29T03:48:19;22.98;71.16
76577;DHT22;65441;44.748;37.600;2023-07-29T03:50:47;23.16;68.98
76577;DHT22;65441;44.748;37.600;2023-07-29T03:53:15;23.36;67.91
76577;DHT22;65441;44.748;37.600;2023-07-29T03:55:44;23.57;68.17
76577;DHT22;65441;44.748;37.600;2023-07-29T03:58:12;23.82;66.60
76577;DHT22;65441;44.748;37.600;2023-07-29T04:00:40;23.91;65.64
76577;DHT22;65441;44.748;37.600;2023-07-29T04:03:08;24.08;64.34
76577;DHT22;65441;44.748;37.600;2023-07-29T04:05:38;24.28;65.40
76577;DHT22;65441;44.748;37.600;2023-07-29T04:08:06;24.50;64.51
76577;DHT22;65441;44.748;37.600;2023-07-29T04:10:35;24.34;64.92
76577;DHT22;65441;44.748;37.600;2023-07-29T04:13:04;24.62;63.93
76577;DHT22;65441;44.748;37.600;2023-07-29T04:15:32;24.80;63.19
76577;DHT22;65441;44.748;37.600;2023-07-29T04:18:01;25.05;63.48
76577;DHT22;65441;44.748;37.600;2023-07-29T04:20:29;24.89;62.67
76577;DHT22;65441;44.748;37.600;2023-07-29T04:22:59;25.28;61.83
76577;DHT22;65441;44.748;37.600;2023-07-29T04:25:27;25.34;61.82
76577;DHT22;65441;44.748;37.600;2023-07-29T04:27:56;25.50;61.86
76577;DHT22;65441;44.748;37.600;2023-07-29T04:30:25;25.77;61.34
76577;DHT22;65441;44.748;37.600;2023-07-29T04:32:53;25.72;59.41
76577;DHT22;65441;44.748;37.600;2023-07-29T04:35:22;25.66;60.31
76577;DHT22;65441;44.748;37.600;2023-07-29T04:37:50;25.73;60.18
76577;DHT22;65441;44.748;37.600;2023-07-29T04:40:20;25.90;59.87
76577;DHT22;65441;44.748;37.600;2023-07-29T04:42:49;26.32;60.56
76577;DHT22;65441;44.748;37.600;2023-07-29T04:45:17;26.47;58.64
76577;DHT22;65441;44.748;37.600;2023-07-29T04:47:46;26.31;56.41
76577;DHT22;65441;44.748;37.600;2023-07-29T04:50:14;26.34;57.19
76577;DHT22;65441;44.748;37.600;2023-07-29T04:52:43;26.70;57.16
76577;DHT22;65441;44.748;37.600;2023-07-29T04:55:12;26.81;57.40
76577;DHT22;65441;44.748;37.600;2023-07-29T04:57:42;26.93;56.94
76577;DHT22;65441;44.748;37.600;2023-07-29T05:00:11;27.16;55.02
76577;DHT22;65441;44.748;37.600;2023-07-29T05:02:40;26.82;56.64
76577;DHT22;65441;44.748;37.600;2023-07-29T05:05:08;26.68;55.93
76577;DHT22;65441;44.748;37.600;2023-07-29T05:07:37;26.89;55.34
76577;DHT22;65441;44.748;37.600;2023-07-29T05:10:06;26.87;54.71
76577;DHT22;65441;44.748;37.600;2023-07-29T05:12:34;26.86;56.00
76577;DHT22;65441;44.748;37.600;2023-07-29T05:15:05;27.07;54.13
76577;DHT22;65441;44.748;37.600;2023-07-29T05:17:34;27.22;53.40
76577;DHT22;65441;44.748;37.600;2023-07-29T05:20:02;27.28;54.46
76577;DHT22;65441;44.748;37.600;2023-07-29T05:22:31;27.06;54.87
76577;DHT22;65441;44.748;37.600;2023-07-29T05:24:59;27.30;55.26
76577;DHT22;65441;44.748;37.600;2023-07-29T05:27:27;27.52;54.04
76577;DHT22;65441;44.748;37.600;2023-07-29T05:29:55;27.43;54.09
76577;DHT22;65441;44.748;37.600;2023-07-29T05:32:25;27.75;50.75
76577;DHT22;65441;44.748;37.600;2023-07-29T05:34:54;27.27;51.15
76577;DHT22;65441;44.748;37.600;2023-07-29T05:37:23;27.45;52.69
76577;DHT22;65441;44.748;37.600;2023-07-29T05:39:51;27.64;51.30
76577;DHT22;65441;44.748;37.600;2023-07-29T05:42:20;28.02;53.43
76577;DHT22;65441;44.748;37.600;2023-07-29T05:44:48;27.78;49.69
76577;DHT22;65441;44.748;37.600;2023-07-29T05:47:16;27.97;51.04
76577;DHT22;65441;44.748;37.600;2023-07-29T05:49:46;28.04;49.63
76577;DHT22;65441;44.748;37.600;2023-07-29T05:52:14;27.89;51.96
76577;DHT22;65441;44.748;37.600;2023-07-29T05:54:43;27.93;51.28
76577;DHT22;65441;44.748;37.600;2023-07-29T05:57:12;28.15;50.95
76577;DHT22;65441;44.748;37.600;2023-07-29T05:59:40;28.11;50.70
76577;DHT22;65441;44.748;37.600;2023-07-29T06:02:08;28.32;50.05
76577;DHT22;65441;44.748;37.600;2023-07-29T06:04:37;28.75;48.05
76577;DHT22;65441;44.748;37.600;2023-07-29T06:07:07;28.83;49.33
76577;DHT22;65441;44.748;37.600;2023-07-29T06:09:36;28.86;48.41
76577;DHT22;65441;44.748;37.600;2023-07-29T06:12:05;28.62;50.36
76577;DHT22;65441;44.748;37.600;2023-07-29T06:14:33;28.33;48.90
76577;DHT22;65441;44.748;37.600;2023-07-29T06:17:01;28.42;49.65
76577;DHT22;65441;44.748;37.600;2023-07-29T06:19:29;28.24;50.37
76577;DHT22;65441;44.748;37.600;2023-07-29T06:22:00;28.52;51.75
76577;DHT22;65441;44.748;37.600;2023-07-29T06:24:30;28.73;48.20
76577;DHT22;65441;44.748;37.600;2023-07-29T06:26:59;28.58;48.62
76577;DHT22;65441;44.748;37.600;2023-07-29T06:29:27;28.88;48.03
76577;DHT22;65441;44.748;37.600;2023-07-29T06:31:55;28.12;49.56
76577;DHT22;65441;44.748;37.600;2023-07-29T06:34:25;27.85;50.43
76577;DHT22;65441;44.748;37.600;2023-07-29T06:36:54;28.58;49.95
76577;DHT22;65441;44.748;37.600;2023-07-29T06:39:22;28.54;52.09
76577;DHT22;65441;44.748;37.600;2023-07-29T06:41:52;28.52;48.57
76577;DHT22;65441;44.748;37.600;2023-07-29T06:44:20;28.88;49.66
76577;DHT22;65441;44.748;37.600;2023-07-29T06:46:48;29.23;48.45
76577;DHT22;65441;44.748;37.600;2023-07-29T06:49:17;29.66;46.60
76577;DHT22;65441;44.748;37.600;2023-07-29T06:51:45;29.18;45.45
76577;DHT22;65441;44.748;37.600;2023-07-29T06:54:13;28.44;48.16
76577;DHT22;65441;44.748;37.600;2023-07-29T06:56:42;27.80;50.61
76577;DHT22;65441;44.748;37.600;2023-07-29T06:59:11;27.96;49.98
76577;DHT22;65441;44.748;37.600;2023-07-29T07:01:40;28.43;49.53
76577;DHT22;65441;44.748;37.600;2023-07-29T07:04:08;28.84;46.46
76577;DHT22;65441;44.748;37.600;2023-07-29T07:06:36;29.44;46.96
76577;DHT22;65441;44.748;37.600;2023-07-29T07:09:04;29.74;47.73
76577;DHT22;65441;44.748;37.600;2023-07-29T07:11:32;30.13;43.79
76577;DHT22;65441;44.748;37.600;2023-07-29T07:14:01;30.34;43.80
76577;DHT22;65441;44.748;37.600;2023-07-29T07:16:30;30.50;40.33
76577;DHT22;65441;44.748;37.600;2023-07-29T07:18:59;30.38;42.26
76577;DHT22;65441;44.748;37.600;2023-07-29T07:21:29;30.40;41.78
76577;DHT22;65441;44.748;37.600;2023-07-29T07:23:59;30.46;40.28
76577;DHT22;65441;44.748;37.600;2023-07-29T07:26:29;30.02;42.69
76577;DHT22;65441;44.748;37.600;2023-07-29T07:28:57;30.65;41.45
76577;DHT22;65441;44.748;37.600;2023-07-29T07:31:27;30.93;40.67
76577;DHT22;65441;44.748;37.600;2023-07-29T07:34:01;31.31;37.88
76577;DHT22;65441;44.748;37.600;2023-07-29T07:36:32;30.96;37.42
76577;DHT22;65441;44.748;37.600;2023-07-29T07:39:03;30.94;40.16
76577;DHT22;65441;44.748;37.600;2023-07-29T07:41:33;29.88;41.25
76577;DHT22;65441;44.748;37.600;2023-07-29T07:44:02;29.07;43.41
76577;DHT22;65441;44.748;37.600;2023-07-29T07:46:30;28.76;43.83
76577;DHT22;65441;44.748;37.600;2023-07-29T07:49:00;29.08;43.54
76577;DHT22;65441;44.748;37.600;2023-07-29T07:51:28;29.34;41.78
76577;DHT22;65441;44.748;37.600;2023-07-29T07:53:56;29.58;42.35
76577;DHT22;65441;44.748;37.600;2023-07-29T07:56:28;29.94;41.78
76577;DHT22;65441;44.748;37.600;2023-07-29T07:58:56;30.28;40.83
76577;DHT22;65441;44.748;37.600;2023-07-29T08:01:26;29.06;43.88
76577;DHT22;65441;44.748;37.600;2023-07-29T08:03:55;29.14;43.42
76577;DHT22;65441;44.748;37.600;2023-07-29T08:06:24;29.97;43.66
76577;DHT22;65441;44.748;37.600;2023-07-29T08:08:52;30.38;43.11
76577;DHT22;65441;44.748;37.600;2023-07-29T08:11:23;30.42;44.08
76577;DHT22;65441;44.748;37.600;2023-07-29T08:13:51;30.55;39.80
76577;DHT22;65441;44.748;37.600;2023-07-29T08:16:23;30.00;39.12
76577;DHT22;65441;44.748;37.600;2023-07-29T08:18:53;29.35;38.84
76577;DHT22;65441;44.748;37.600;2023-07-29T08:21:26;29.92;42.29
76577;DHT22;65441;44.748;37.600;2023-07-29T08:23:56;30.28;41.74
76577;DHT22;65441;44.748;37.600;2023-07-29T08:26:24;29.39;43.40
76577;DHT22;65441;44.748;37.600;2023-07-29T08:28:56;29.42;43.59
76577;DHT22;65441;44.748;37.600;2023-07-29T08:31:25;29.85;42.59
76577;DHT22;65441;44.748;37.600;2023-07-29T08:33:54;30.44;41.29
76577;DHT22;65441;44.748;37.600;2023-07-29T08:36:27;30.57;41.00
76577;DHT22;65441;44.748;37.600;2023-07-29T08:38:55;30.79;42.45
76577;DHT22;65441;44.748;37.600;2023-07-29T08:41:26;30.84;41.35
76577;DHT22;65441;44.748;37.600;2023-07-29T08:44:04;31.04;39.71
76577;DHT22;65441;44.748;37.600;2023-07-29T08:46:38;31.00;41.45
76577;DHT22;65441;44.748;37.600;2023-07-29T08:49:07;31.18;39.32
76577;DHT22;65441;44.748;37.600;2023-07-29T08:51:38;30.41;41.17
76577;DHT22;65441;44.748;37.600;2023-07-29T08:54:08;30.57;41.04
76577;DHT22;65441;44.748;37.600;2023-07-29T08:56:38;30.86;40.54
76577;DHT22;65441;44.748;37.600;2023-07-29T08:59:08;31.24;39.62
76577;DHT22;65441;44.748;37.600;2023-07-29T09:01:38;31.28;36.40
76577;DHT22;65441;44.748;37.600;2023-07-29T09:04:07;31.19;37.75
76577;DHT22;65441;44.748;37.600;2023-07-29T09:06:40;31.30;37.91
76577;DHT22;65441;44.748;37.600;2023-07-29T09:09:11;31.64;37.87
76577;DHT22;65441;44.748;37.600;2023-07-29T09:11:42;32.23;38.33
76577;DHT22;65441;44.748;37.600;2023-07-29T09:14:15;31.69;38.54
76577;DHT22;65441;44.748;37.600;2023-07-29T09:16:44;31.70;39.01
76577;DHT22;65441;44.748;37.600;2023-07-29T09:19:14;30.81;37.62
76577;DHT22;65441;44.748;37.600;2023-07-29T09:21:46;29.86;39.19
76577;DHT22;65441;44.748;37.600;2023-07-29T09:24:17;29.79;40.50
76577;DHT22;65441;44.748;37.600;2023-07-29T09:26:51;30.16;38.57
76577;DHT22;65441;44.748;37.600;2023-07-29T09:29:22;30.18;35.82
76577;DHT22;65441;44.748;37.600;2023-07-29T09:31:51;30.62;36.53
76577;DHT22;65441;44.748;37.600;2023-07-29T09:34:21;30.67;34.30
76577;DHT22;65441;44.748;37.600;2023-07-29T09:36:53;30.90;38.46
76577;DHT22;65441;44.748;37.600;2023-07-29T09:39:23;30.86;37.37
76577;DHT22;65441;44.748;37.600;2023-07-29T09:41:52;30.84;34.59
76577;DHT22;65441;44.748;37.600;2023-07-29T09:44:21;30.19;35.76
76577;DHT22;65441;44.748;37.600;2023-07-29T09:46:55;30.60;35.96
76577;DHT22;65441;44.748;37.600;2023-07-29T09:49:24;30.85;35.61
76577;DHT22;65441;44.748;37.600;2023-07-29T09:51:57;31.11;33.92
76577;DHT22;65441;44.748;37.600;2023-07-29T09:54:31;31.34;33.60
76577;DHT22;65441;44.748;37.600;2023-07-29T09:57:00;31.23;37.91
76577;DHT22;65441;44.748;37.600;2023-07-29T09:59:33;31.38;37.16
76577;DHT22;65441;44.748;37.600;2023-07-29T10:02:02;30.85;38.17
76577;DHT22;65441;44.748;37.600;2023-07-29T10:04:32;30.90;36.21
76577;DHT22;65441;44.748;37.600;2023-07-29T10:07:05;31.11;34.75
76577;DHT22;65441;44.748;37.600;2023-07-29T10:09:34;31.53;35.24
76577;DHT22;65441;44.748;37.600;2023-07-29T10:12:06;31.46;35.49
76577;DHT22;65441;44.748;37.600;2023-07-29T10:14:35;31.76;34.34
76577;DHT22;65441;44.748;37.600;2023-07-29T10:17:09;32.33;32.83
76577;DHT22;65441;44.748;37.600;2023-07-29T10:19:40;31.89;32.90
76577;DHT22;65441;44.748;37.600;2023-07-29T10:22:16;30.84;34.11
76577;DHT22;65441;44.748;37.600;2023-07-29T10:24:56;30.09;34.31
76577;DHT22;65441;44.748;37.600;2023-07-29T10:27:31;30.32;34.11
76577;DHT22;65441;44.748;37.600;2023-07-29T10:30:08;30.63;35.87
76577;DHT22;65441;44.748;37.600;2023-07-29T10:32:44;31.29;36.08
76577;DHT22;65441;44.748;37.600;2023-07-29T10:35:19;31.10;34.41
76577;DHT22;65441;44.748;37.600;2023-07-29T10:37:49;30.98;33.94
76577;DHT22;65441;44.748;37.600;2023-07-29T10:40:24;30.97;33.61
76577;DHT22;65441;44.748;37.600;2023-07-29T10:43:01;30.96;35.54
76577;DHT22;65441;44.748;37.600;2023-07-29T10:45:45;31.26;36.22
76577;DHT22;65441;44.748;37.600;2023-07-29T10:48:44;31.49;35.98
76577;DHT22;65441;44.748;37.600;2023-07-29T10:51:28;31.75;32.88
76577;DHT22;65441;44.748;37.600;2023-07-29T10:54:00;31.57;31.43
76577;DHT22;65441;44.748;37.600;2023-07-29T10:56:32;31.36;33.22
76577;DHT22;65441;44.748;37.600;2023-07-29T10:59:31;31.58;33.42
76577;DHT22;65441;44.748;37.600;2023-07-29T11:02:18;31.43;31.90
76577;DHT22;65441;44.748;37.600;2023-07-29T11:04:52;31.46;31.61
76577;DHT22;65441;44.748;37.600;2023-07-29T11:07:30;31.06;33.51
76577;DHT22;65441;44.748;37.600;2023-07-29T11:10:02;31.06;34.02
76577;DHT22;65441;44.748;37.600;2023-07-29T11:12:50;30.96;31.81
76577;DHT22;65441;44.748;37.600;2023-07-29T11:15:24;30.98;32.99
76577;DHT22;65441;44.748;37.600;2023-07-29T11:17:57;30.45;32.81
76577;DHT22;65441;44.748;37.600;2023-07-29T11:20:30;30.26;36.76
76577;DHT22;65441;44.748;37.600;2023-07-29T11:23:00;29.81;35.26
76577;DHT22;65441;44.748;37.600;2023-07-29T11:25:30;30.23;34.18
76577;DHT22;65441;44.748;37.600;2023-07-29T11:28:02;30.53;35.56
76577;DHT22;65441;44.748;37.600;2023-07-29T11:30:31;30.87;34.75
76577;DHT22;65441;44.748;37.600;2023-07-29T11:33:00;31.02;33.67
76577;DHT22;65441;44.748;37.600;2023-07-29T11:35:28;30.92;34.05
76577;DHT22;65441;44.748;37.600;2023-07-29T11:37:57;30.99;34.21
76577;DHT22;65441;44.748;37.600;2023-07-29T11:40:25;31.24;33.83
76577;DHT22;65441;44.748;37.600;2023-07-29T11:42:56;30.98;35.08
76577;DHT22;65441;44.748;37.600;2023-07-29T11:45:25;30.99;34.60
76577;DHT22;65441;44.748;37.600;2023-07-29T11:47:55;31.09;33.74
76577;DHT22;65441;44.748;37.600;2023-07-29T11:50:25;30.97;33.71
76577;DHT22;65441;44.748;37.600;2023-07-29T11:52:54;30.78;36.19
76577;DHT22;65441;44.748;37.600;2023-07-29T11:55:24;31.06;35.78
76577;DHT22;65441;44.748;37.600;2023-07-29T11:57:57;30.68;36.92
76577;DHT22;65441;44.748;37.600;2023-07-29T12:00:26;30.56;36.82
76577;DHT22;65441;44.748;37.600;2023-07-29T12:02:59;30.37;35.66
76577;DHT22;65441;44.748;37.600;2023-07-29T12:05:28;30.37;35.67
76577;DHT22;65441;44.748;37.600;2023-07-29T12:07:58;30.20;36.21
76577;DHT22;65441;44.748;37.600;2023-07-29T12:10:27;30.54;37.44
76577;DHT22;65441;44.748;37.600;2023-07-29T12:12:58;30.68;36.05
76577;DHT22;65441;44.748;37.600;2023-07-29T12:15:28;30.40;34.69
76577;DHT22;65441;44.748;37.600;2023-07-29T12:17:57;30.33;34.50
76577;DHT22;65441;44.748;37.600;2023-07-29T12:20:26;30.42;35.90
76577;DHT22;65441;44.748;37.600;2023-07-29T12:22:58;30.24;35.16
76577;DHT22;65441;44.748;37.600;2023-07-29T12:25:28;29.93;36.55
76577;DHT22;65441;44.748;37.600;2023-07-29T12:28:04;29.92;36.79
76577;DHT22;65441;44.748;37.600;2023-07-29T12:30:33;29.88;35.32
76577;DHT22;65441;44.748;37.600;2023-07-29T12:33:01;29.80;36.09
76577;DHT22;65441;44.748;37.600;2023-07-29T12:35:36;29.78;36.24
76577;DHT22;65441;44.748;37.600;2023-07-29T12:38:06;29.57;37.86
76577;DHT22;65441;44.748;37.600;2023-07-29T12:40:38;29.67;37.91
76577;DHT22;65441;44.748;37.600;2023-07-29T12:43:12;29.86;37.75
76577;DHT22;65441;44.748;37.600;2023-07-29T12:45:40;29.46;37.43
76577;DHT22;65441;44.748;37.600;2023-07-29T12:48:10;29.76;38.97
76577;DHT22;65441;44.748;37.600;2023-07-29T12:50:39;29.79;37.68
76577;DHT22;65441;44.748;37.600;2023-07-29T12:53:09;29.81;38.02
76577;DHT22;65441;44.748;37.600;2023-07-29T12:55:40;29.67;37.85
76577;DHT22;65441;44.748;37.600;2023-07-29T12:58:11;29.15;39.81
76577;DHT22;65441;44.748;37.600;2023-07-29T13:00:42;29.13;41.04
76577;DHT22;65441;44.748;37.600;2023-07-29T13:03:11;29.22;39.97
76577;DHT22;65441;44.748;37.600;2023-07-29T13:05:39;28.99;39.85
76577;DHT22;65441;44.748;37.600;2023-07-29T13:08:09;29.17;38.20
76577;DHT22;65441;44.748;37.600;2023-07-29T13:10:43;29.36;38.29
76577;DHT22;65441;44.748;37.600;2023-07-29T13:13:13;29.33;38.07
76577;DHT22;65441;44.748;37.600;2023-07-29T13:15:41;29.06;39.58
76577;DHT22;65441;44.748;37.600;2023-07-29T13:18:10;29.08;39.88
76577;DHT22;65441;44.748;37.600;2023-07-29T13:20:38;29.28;38.16
76577;DHT22;65441;44.748;37.600;2023-07-29T13:23:06;29.23;38.11
76577;DHT22;65441;44.748;37.600;2023-07-29T13:25:34;29.09;38.40
76577;DHT22;65441;44.748;37.600;2023-07-29T13:28:02;28.79;38.65
76577;DHT22;65441;44.748;37.600;2023-07-29T13:30:32;28.88;39.39
76577;DHT22;65441;44.748;37.600;2023-07-29T13:33:03;28.48;37.48
76577;DHT22;65441;44.748;37.600;2023-07-29T13:35:34;28.46;39.33
76577;DHT22;65441;44.748;37.600;2023-07-29T13:38:02;28.53;39.17
76577;DHT22;65441;44.748;37.600;2023-07-29T13:40:31;28.59;39.44
76577;DHT22;65441;44.748;37.600;2023-07-29T13:43:00;28.61;39.50
76577;DHT22;65441;44.748;37.600;2023-07-29T13:45:28;28.65;39.44
76577;DHT22;65441;44.748;37.600;2023-07-29T13:48:02;28.84;39.10
76577;DHT22;65441;44.748;37.600;2023-07-29T13:50:33;28.63;38.68
76577;DHT22;65441;44.748;37.600;2023-07-29T13:53:02;28.18;39.65
76577;DHT22;65441;44.748;37.600;2023-07-29T13:55:30;27.98;40.04
76577;DHT22;65441;44.748;37.600;2023-07-29T13:57:58;27.97;41.08
76577;DHT22;65441;44.748;37.600;2023-07-29T14:00:31;28.18;41.24
76577;DHT22;65441;44.748;37.600;2023-07-29T14:03:01;28.13;41.49
76577;DHT22;65441;44.748;37.600;2023-07-29T14:05:32;27.88;42.51
76577;DHT22;65441;44.748;37.600;2023-07-29T14:08:00;27.88;43.57
76577;DHT22;65441;44.748;37.600;2023-07-29T14:10:28;27.98;43.57
76577;DHT22;65441;44.748;37.600;2023-07-29T14:12:57;27.80;43.87
76577;DHT22;65441;44.748;37.600;2023-07-29T14:15:25;27.93;44.42
76577;DHT22;65441;44.748;37.600;2023-07-29T14:17:54;27.71;44.58
76577;DHT22;65441;44.748;37.600;2023-07-29T14:20:24;27.45;44.98
76577;DHT22;65441;44.748;37.600;2023-07-29T14:22:53;27.42;46.00
76577;DHT22;65441;44.748;37.600;2023-07-29T14:25:21;27.44;45.84
76577;DHT22;65441;44.748;37.600;2023-07-29T14:27:50;27.44;45.85
76577;DHT22;65441;44.748;37.600;2023-07-29T14:30:18;27.37;47.86
76577;DHT22;65441;44.748;37.600;2023-07-29T14:32:47;27.26;46.10
76577;DHT22;65441;44.748;37.600;2023-07-29T14:35:15;27.28;45.80
76577;DHT22;65441;44.748;37.600;2023-07-29T14:37:45;27.13;45.41
76577;DHT22;65441;44.748;37.600;2023-07-29T14:40:13;27.16;46.05
76577;DHT22;65441;44.748;37.600;2023-07-29T14:42:42;27.19;46.03
76577;DHT22;65441;44.748;37.600;2023-07-29T14:45:10;27.09;46.34
76577;DHT22;65441;44.748;37.600;2023-07-29T14:47:38;26.98;45.98
76577;DHT22;65441;44.748;37.600;2023-07-29T14:50:07;26.77;47.08
76577;DHT22;65441;44.748;37.600;2023-07-29T14:52:35;26.86;47.32
76577;DHT22;65441;44.748;37.600;2023-07-29T14:55:06;26.81;46.60
76577;DHT22;65441;44.748;37.600;2023-07-29T14:57:35;26.72;46.51
76577;DHT22;65441;44.748;37.600;2023-07-29T15:00:05;26.56;46.89
76577;DHT22;65441;44.748;37.600;2023-07-29T15:02:36;26.49;47.60
76577;DHT22;65441;44.748;37.600;2023-07-29T15:05:10;26.61;48.12
76577;DHT22;65441;44.748;37.600;2023-07-29T15:07:39;26.56;47.25
76577;DHT22;65441;44.748;37.600;2023-07-29T15:10:09;26.39;48.31
76577;DHT22;65441;44.748;37.600;2023-07-29T15:12:38;26.34;48.58
76577;DHT22;65441;44.748;37.600;2023-07-29T15:15:09;26.16;48.43
76577;DHT22;65441;44.748;37.600;2023-07-29T15:17:37;26.20;48.65
76577;DHT22;65441;44.748;37.600;2023-07-29T15:20:06;26.12;48.87
76577;DHT22;65441;44.748;37.600;2023-07-29T15:22:35;26.08;48.74
76577;DHT22;65441;44.748;37.600;2023-07-29T15:25:05;26.04;48.63
76577;DHT22;65441;44.748;37.600;2023-07-29T15:27:34;25.84;49.34
76577;DHT22;65441;44.748;37.600;2023-07-29T15:30:05;25.67;49.37
76577;DHT22;65441;44.748;37.600;2023-07-29T15:32:34;25.60;50.64